Time,TemperatureF,DewpointF,PressureIn,WindDirection,WindDirectionDegrees,WindSpeedMPH,WindSpeedGustMPH,Humidity,HourlyPrecipIn,Conditions,Clouds,dailyrainin,SoftwareType,DateUTC
2013-08-25 00:02:00,-999.0,-99.9,30.33,NE,45,0.0,0.0,-999,-99.99,,,-99.99,,2013-08-25 04:02:00,
2013-08-25 00:25:00,53.0,46.0,30.33,North,0,0.0,0.0,78,0.00,,,0.00,,2013-08-25 04:25:00,
2013-08-25 01:23:00,52.0,46.0,30.33,NE,45,0.0,0.0,80,0.00,,,0.00,,2013-08-25 05:23:00,
2013-08-25 01:52:00,52.0,46.0,30.33,NE,45,0.0,0.0,79,0.00,,,5.19,,2013-08-25 05:52:00,
2013-08-25 02:52:00,51.0,46.0,30.30,NE,45,0.0,0.0,82,0.00,,,0.00,,2013-08-25 06:52:00,
2013-08-25 03:52:00,51.0,46.0,30.30,NE,45,0.0,0.0,82,0.00,,,0.00,,2013-08-25 07:52:00,
2013-08-25 04:21:00,51.0,46.0,30.30,North,0,0.0,0.0,84,0.00,,,0.00,,2013-08-25 08:21:00,
2013-08-25 04:52:00,52.0,47.0,30.30,NE,45,0.0,0.0,84,0.00,,,0.00,,2013-08-25 08:52:00,
2013-08-25 06:53:00,52.0,48.0,30.33,NE,45,0.0,0.0,85,0.00,,,0.00,,2013-08-25 10:53:00,
2013-08-25 07:12:00,53.0,49.0,30.33,NE,45,0.0,0.0,86,0.00,,,0.00,,2013-08-25 11:12:00,
2013-08-25 07:22:00,53.0,49.0,30.33,NE,45,0.0,0.0,86,0.00,,,0.00,,2013-08-25 11:22:00,
2013-08-25 07:52:00,55.0,52.0,30.36,NE,45,0.0,0.0,88,0.00,,,0.00,,2013-08-25 11:52:00,
2013-08-25 08:22:00,61.0,58.0,30.36,North,0,0.0,0.0,89,0.00,,,0.00,,2013-08-25 12:22:00,
2013-08-25 08:52:00,64.0,59.0,30.36,NW,315,0.0,0.0,83,0.00,,,0.00,,2013-08-25 12:52:00,
2013-08-25 09:22:00,66.0,59.0,30.36,North,0,0.0,0.0,78,0.00,,,0.00,,2013-08-25 13:22:00,
2013-08-25 09:52:00,67.0,58.0,30.36,NW,315,0.0,0.0,73,0.00,,,0.00,,2013-08-25 13:52:00,
2013-08-25 10:11:00,70.0,59.0,30.36,East,90,0.0,0.0,67,0.00,,,0.00,,2013-08-25 14:11:00,
2013-08-25 10:27:00,70.0,59.0,30.36,East,90,0.0,0.0,67,0.00,,,0.00,,2013-08-25 14:27:00,
2013-08-25 10:52:00,72.0,59.0,30.33,NNE,22,0.0,0.0,64,0.00,,,0.00,,2013-08-25 14:52:00,
2013-08-25 11:23:00,73.0,60.0,30.33,North,0,0.0,0.0,64,0.00,,,0.00,,2013-08-25 15:23:00,
2013-08-25 11:54:00,74.0,61.0,30.33,West,270,0.0,0.0,64,0.00,,,0.00,,2013-08-25 15:54:00,
2013-08-25 12:24:00,75.0,61.0,30.33,North,0,0.0,0.0,61,0.00,,,0.00,,2013-08-25 16:24:00,
2013-08-25 12:53:00,76.0,60.0,30.30,NW,315,0.0,0.0,58,0.00,,,0.00,,2013-08-25 16:53:00,
2013-08-25 13:12:00,77.0,59.0,30.30,NNW,338,0.0,0.0,54,0.00,,,0.00,,2013-08-25 17:12:00,
2013-08-25 13:23:00,77.0,59.0,30.30,NNW,338,0.0,0.0,54,0.00,,,0.00,,2013-08-25 17:23:00,
2013-08-25 13:53:00,79.0,55.0,30.30,West,270,0.0,2.0,44,0.00,,,0.00,,2013-08-25 17:53:00,
2013-08-25 18:24:00,76.0,60.0,30.24,SW,225,0.0,0.0,57,0.00,,,0.00,,2013-08-25 22:24:00,
2013-08-25 18:53:00,74.0,58.0,30.24,WNW,292,0.0,0.0,57,0.00,,,0.00,,2013-08-25 22:53:00,
2013-08-25 19:23:00,72.0,59.0,30.24,WSW,248,0.0,0.0,63,0.00,,,0.00,,2013-08-25 23:23:00,
2013-08-25 19:53:00,70.0,57.0,30.24,WSW,248,0.0,0.0,64,0.00,,,5.19,,2013-08-25 23:53:00,
2013-08-25 20:22:00,69.0,57.0,30.24,WSW,248,0.0,0.0,65,0.00,,,0.00,,2013-08-26 00:22:00,
2013-08-25 20:52:00,68.0,57.0,30.21,SW,225,0.0,0.0,69,0.00,,,0.00,,2013-08-26 00:52:00,
2013-08-25 21:02:00,68.0,57.0,30.21,SW,225,0.0,0.0,69,0.00,,,0.00,,2013-08-26 01:02:00,
2013-08-25 21:22:00,67.0,57.0,30.24,SW,225,0.0,0.0,71,0.00,,,0.00,,2013-08-26 01:22:00,
2013-08-25 21:52:00,67.0,57.0,30.24,SW,225,0.0,0.0,71,0.00,,,0.00,,2013-08-26 01:52:00,
2013-08-25 22:22:00,67.0,58.0,30.24,WNW,292,0.0,0.0,72,0.00,,,0.00,,2013-08-26 02:22:00,
2013-08-25 22:52:00,67.0,58.0,30.24,WSW,248,0.0,0.0,72,0.00,,,0.00,,2013-08-26 02:52:00,
2013-08-25 23:11:00,66.0,57.0,30.24,SW,225,0.0,0.0,73,0.00,,,0.00,,2013-08-26 03:11:00,
2013-08-25 23:22:00,66.0,57.0,30.24,SW,225,0.0,0.0,73,0.00,,,0.00,,2013-08-26 03:22:00,
2013-08-25 23:34:00,66.0,57.0,30.24,SW,225,0.0,0.0,73,0.00,,,0.00,,2013-08-26 03:34:00,